Time;durP1;ratioP1;P1;durP2;ratioP2;P2;SDS_P1;SDS_P2;PMS_P1;PMS_P2;Temp;Humidity;BMP_temperature;BMP_pressure;BME280_temperature;BME280_humidity;BME280_pressure;Samples;Min_cycle;Max_cycle;Signal;HPM_P1;HPM_P2
2022/04/10 00:01:32;;;;;;;11.13;10.03;;;2.80;99.90;;;;;;5032591;28;20191;-68
2022/04/10 00:03:58;;;;;;;10.23;9.57;;;2.80;99.90;;;;;;5032739;28;20184;-68
2022/04/10 00:06:26;;;;;;;9.83;9.17;;;2.80;99.90;;;;;;5032338;28;20626;-68
2022/04/10 00:08:52;;;;;;;10.53;9.67;;;2.70;99.90;;;;;;5032724;28;20314;-67
2022/04/10 00:11:18;;;;;;;11.17;9.97;;;2.70;99.90;;;;;;5032559;28;20294;-66
2022/04/10 00:13:44;;;;;;;11.13;10.13;;;2.70;99.90;;;;;;5032572;28;20171;-68
2022/04/10 00:16:09;;;;;;;13.00;9.97;;;2.60;99.90;;;;;;5030849;28;20266;-67
2022/04/10 00:18:36;;;;;;;9.13;8.43;;;2.60;99.90;;;;;;5032305;28;20199;-66
2022/04/10 00:21:02;;;;;;;10.47;9.40;;;2.60;99.90;;;;;;5032424;28;20193;-68
2022/04/10 00:23:28;;;;;;;10.33;9.30;;;2.60;99.90;;;;;;5031656;28;20179;-67
2022/04/10 00:25:53;;;;;;;10.33;9.43;;;2.60;99.90;;;;;;5031709;28;20245;-67
2022/04/10 00:28:19;;;;;;;10.47;9.70;;;2.50;99.90;;;;;;5032256;28;20179;-67
2022/04/10 00:30:45;;;;;;;10.40;9.60;;;2.50;99.90;;;;;;5032107;28;20675;-67
2022/04/10 00:33:11;;;;;;;10.70;10.00;;;2.50;99.90;;;;;;5032087;28;20167;-67
2022/04/10 00:35:36;;;;;;;9.83;8.97;;;2.50;99.90;;;;;;5031816;28;20230;-68
2022/04/10 00:38:02;;;;;;;9.70;8.90;;;2.40;99.90;;;;;;5031954;28;20672;-68
2022/04/10 00:40:28;;;;;;;9.67;8.93;;;2.40;99.90;;;;;;5032095;28;20290;-68
2022/04/10 00:42:54;;;;;;;10.07;9.20;;;2.40;99.90;;;;;;5032407;28;20258;-67
2022/04/10 00:45:22;;;;;;;10.93;8.83;;;2.40;99.90;;;;;;5031548;28;20186;-65
2022/04/10 00:47:48;;;;;;;12.87;9.93;;;2.30;99.90;;;;;;5031988;28;20172;-67
2022/04/10 00:50:16;;;;;;;10.60;9.70;;;2.30;99.90;;;;;;5030734;28;20210;-67
2022/04/10 00:52:43;;;;;;;10.73;9.77;;;2.30;99.90;;;;;;5031875;28;20210;-67
2022/04/10 00:55:09;;;;;;;11.03;9.93;;;2.30;99.90;;;;;;5031575;28;20254;-68
2022/04/10 00:57:35;;;;;;;9.87;8.90;;;2.30;99.90;;;;;;5031775;28;20172;-67
2022/04/10 01:00:01;;;;;;;10.00;8.97;;;2.30;99.90;;;;;;5031697;28;20202;-68
2022/04/10 01:02:26;;;;;;;11.77;9.47;;;2.30;99.90;;;;;;5031954;28;20179;-68
2022/04/10 01:04:52;;;;;;;10.27;9.17;;;2.30;99.90;;;;;;5031371;28;20187;-67
2022/04/10 01:07:20;;;;;;;10.23;9.43;;;2.30;99.90;;;;;;5031735;28;20167;-67
2022/04/10 01:09:46;;;;;;;10.07;9.27;;;2.20;99.90;;;;;;5031081;28;20672;-68
2022/04/10 01:12:12;;;;;;;10.50;9.73;;;2.20;99.90;;;;;;5031735;28;20327;-67
2022/04/10 01:14:39;;;;;;;10.00;9.00;;;2.20;99.90;;;;;;5031089;28;20183;-67
2022/04/10 01:17:09;;;;;;;10.67;9.73;;;2.20;99.90;;;;;;5031641;28;20578;-66
2022/04/10 01:19:37;;;;;;;9.73;8.77;;;2.10;99.90;;;;;;5031059;28;20225;-66
2022/04/10 01:22:08;;;;;;;10.73;9.83;;;2.10;99.90;;;;;;5031913;28;20254;-66
2022/04/10 01:24:38;;;;;;;10.23;9.33;;;2.10;99.90;;;;;;5031235;28;20183;-66
2022/04/10 01:27:04;;;;;;;10.83;9.77;;;2.10;99.90;;;;;;5031534;28;20172;-66
2022/04/10 01:29:30;;;;;;;10.73;9.90;;;2.10;99.90;;;;;;5031233;28;20249;-65
2022/04/10 01:31:56;;;;;;;9.97;9.13;;;2.00;99.90;;;;;;5031268;28;20680;-66
2022/04/10 01:34:22;;;;;;;10.20;9.50;;;2.00;99.90;;;;;;5031281;28;20241;-65
2022/04/10 01:36:47;;;;;;;17.70;10.33;;;2.00;99.90;;;;;;5037057;28;20198;-65
2022/04/10 01:39:15;;;;;;;13.63;11.00;;;1.90;99.90;;;;;;5036310;28;20175;-66
2022/04/10 01:41:41;;;;;;;11.27;10.30;;;1.90;99.90;;;;;;5037473;28;20211;-66
2022/04/10 01:44:08;;;;;;;11.73;10.37;;;1.80;99.90;;;;;;5037730;28;20649;-65
2022/04/10 01:46:35;;;;;;;11.20;10.10;;;1.80;99.90;;;;;;5037649;28;20221;-66
2022/04/10 01:49:01;;;;;;;10.77;9.87;;;1.80;99.90;;;;;;5037461;28;20175;-66
2022/04/10 01:51:27;;;;;;;13.00;11.67;;;1.70;99.90;;;;;;5037788;28;20249;-66
2022/04/10 01:53:54;;;;;;;13.17;12.07;;;1.70;99.90;;;;;;5037736;28;20179;-65
2022/04/10 01:56:20;;;;;;;12.37;11.27;;;1.60;99.90;;;;;;5037403;28;20184;-65
2022/04/10 01:58:47;;;;;;;11.50;10.03;;;1.60;99.90;;;;;;5037621;28;20175;-66
2022/04/10 02:01:15;;;;;;;11.33;10.23;;;1.60;99.90;;;;;;5037490;28;20563;-65
2022/04/10 02:03:42;;;;;;;10.77;9.87;;;1.50;99.90;;;;;;5037553;28;20575;-65
2022/04/10 02:06:10;;;;;;;12.63;11.60;;;1.40;99.90;;;;;;5037236;28;20206;-66
2022/04/10 02:08:36;;;;;;;10.70;9.90;;;1.40;99.90;;;;;;5037626;28;20179;-67
2022/04/10 02:11:12;;;;;;;12.00;10.77;;;1.30;99.90;;;;;;5037323;28;20286;-65
2022/04/10 02:13:39;;;;;;;12.83;11.93;;;1.30;99.90;;;;;;5037556;28;20249;-65
2022/04/10 02:16:06;;;;;;;13.73;12.50;;;1.30;99.90;;;;;;5037246;28;20554;-66
2022/04/10 02:18:31;;;;;;;13.13;11.87;;;1.30;99.90;;;;;;5037689;28;20164;-66
2022/04/10 02:20:57;;;;;;;13.07;11.70;;;1.30;99.90;;;;;;5037182;28;20443;-66
2022/04/10 02:23:24;;;;;;;11.87;10.97;;;1.30;99.90;;;;;;5037550;28;20172;-66
2022/04/10 02:25:49;;;;;;;13.50;12.17;;;1.30;99.90;;;;;;5035563;28;20537;-65
2022/04/10 02:28:15;;;;;;;11.17;10.13;;;1.40;99.90;;;;;;5037522;28;20175;-66
2022/04/10 02:30:40;;;;;;;12.20;10.83;;;1.40;99.90;;;;;;5036960;28;20218;-66
2022/04/10 02:33:06;;;;;;;14.00;12.47;;;1.40;99.90;;;;;;5037539;28;20168;-66
2022/04/10 02:35:32;;;;;;;12.67;11.20;;;1.50;99.90;;;;;;5037011;28;20621;-66
2022/04/10 02:37:57;;;;;;;12.07;10.60;;;1.60;99.90;;;;;;5037144;28;20206;-65
2022/04/10 02:40:23;;;;;;;14.17;12.57;;;1.70;99.90;;;;;;5037320;28;20692;-66
2022/04/10 02:42:48;;;;;;;15.23;11.93;;;1.80;99.90;;;;;;5036074;28;20175;-66
2022/04/10 02:45:14;;;;;;;10.70;9.83;;;1.90;99.90;;;;;;5036964;28;20206;-66
2022/04/10 02:47:40;;;;;;;13.63;10.60;;;2.00;99.90;;;;;;5033902;28;20500;-66
2022/04/10 02:50:05;;;;;;;19.40;12.17;;;2.20;99.90;;;;;;5034238;28;20561;-65
2022/04/10 02:52:31;;;;;;;12.40;11.47;;;2.30;99.90;;;;;;5033988;28;20211;-66
2022/04/10 02:54:57;;;;;;;13.73;12.33;;;2.40;99.90;;;;;;5033970;28;20203;-67
2022/04/10 02:57:22;;;;;;;13.57;12.47;;;2.50;99.90;;;;;;5033838;28;20183;-66
2022/04/10 02:59:48;;;;;;;15.93;13.63;;;2.50;99.90;;;;;;5033762;28;20179;-66
2022/04/10 03:02:13;;;;;;;14.67;13.40;;;2.60;99.90;;;;;;5034037;28;20257;-65
2022/04/10 03:04:39;;;;;;;15.10;13.83;;;2.60;99.90;;;;;;5033709;28;20246;-65
2022/04/10 03:07:05;;;;;;;15.63;14.33;;;2.60;99.90;;;;;;5033839;28;20211;-67
2022/04/10 03:09:30;;;;;;;16.00;14.67;;;2.60;99.90;;;;;;5033768;28;20260;-65
2022/04/10 03:11:56;;;;;;;15.20;14.07;;;2.70;99.90;;;;;;5033301;28;20195;-66
2022/04/10 03:14:21;;;;;;;16.17;14.63;;;2.70;99.90;;;;;;5033512;28;20263;-66
2022/04/10 03:16:47;;;;;;;13.87;12.80;;;2.70;99.90;;;;;;5033055;28;20525;-67
2022/04/10 03:19:13;;;;;;;15.13;13.47;;;2.80;99.90;;;;;;5033622;28;20176;-66
2022/04/10 03:21:38;;;;;;;14.70;13.27;;;2.70;99.90;;;;;;5033248;28;20203;-66
2022/04/10 03:24:04;;;;;;;11.70;10.90;;;2.70;99.90;;;;;;5033393;28;20250;-66
2022/04/10 03:26:30;;;;;;;12.83;11.53;;;2.70;99.90;;;;;;5033099;28;20203;-68
2022/04/10 03:28:56;;;;;;;15.37;11.53;;;2.80;99.90;;;;;;5033324;28;20207;-68
2022/04/10 03:31:23;;;;;;;15.30;10.60;;;2.80;99.90;;;;;;5033980;28;20214;-67
2022/04/10 03:33:51;;;;;;;13.30;12.00;;;2.90;99.90;;;;;;5033183;28;20180;-67
2022/04/10 03:36:17;;;;;;;14.80;11.97;;;2.90;99.90;;;;;;5033023;28;20172;-68
2022/04/10 03:38:43;;;;;;;15.13;11.90;;;2.90;99.90;;;;;;5032992;28;20583;-66
2022/04/10 03:41:08;;;;;;;13.27;12.27;;;2.90;99.90;;;;;;5140402;23;20237;-68
2022/04/10 03:43:34;;;;;;;14.60;13.30;;;3.00;99.90;;;;;;5054776;28;20179;-71
2022/04/10 03:46:00;;;;;;;16.27;15.07;;;3.00;99.90;;;;;;5054830;28;20171;-70
2022/04/10 03:48:26;;;;;;;17.03;15.27;;;3.00;99.90;;;;;;5053419;28;20179;-68
2022/04/10 03:50:51;;;;;;;16.50;14.80;;;3.00;99.90;;;;;;5054380;28;20301;-70
2022/04/10 03:53:17;;;;;;;14.93;13.43;;;3.10;99.90;;;;;;5054218;28;20255;-68
2022/04/10 03:55:43;;;;;;;17.37;13.33;;;3.20;99.90;;;;;;5054962;28;20226;-68
2022/04/10 03:58:09;;;;;;;12.03;11.10;;;3.10;99.90;;;;;;5056237;28;20214;-71
2022/04/10 04:00:35;;;;;;;12.40;11.40;;;3.10;99.90;;;;;;5054748;28;20281;-71
2022/04/10 04:03:00;;;;;;;12.87;11.43;;;3.10;99.90;;;;;;5055481;28;20182;-70
2022/04/10 04:05:26;;;;;;;12.80;11.07;;;3.00;99.90;;;;;;5055178;28;20178;-66
2022/04/10 04:07:52;;;;;;;12.60;11.30;;;3.00;99.90;;;;;;5052577;28;20174;-66
2022/04/10 04:10:18;;;;;;;11.93;10.93;;;2.90;99.90;;;;;;5052904;28;20191;-66
2022/04/10 04:12:43;;;;;;;13.57;11.57;;;2.90;99.90;;;;;;5052495;28;20198;-66
2022/04/10 04:15:11;;;;;;;12.67;11.43;;;2.80;99.90;;;;;;5051220;28;20178;-66
2022/04/10 04:17:37;;;;;;;12.83;11.43;;;2.80;99.90;;;;;;5052726;28;20250;-66
2022/04/10 04:20:07;;;;;;;12.13;10.97;;;2.70;99.90;;;;;;5052373;28;20182;-66
2022/04/10 04:22:34;;;;;;;12.50;10.73;;;2.70;99.90;;;;;;5052603;28;20648;-66
2022/04/10 04:25:00;;;;;;;13.00;11.50;;;2.60;99.90;;;;;;5052057;28;20267;-66
2022/04/10 04:27:26;;;;;;;14.30;13.10;;;2.50;99.90;;;;;;5052477;28;20175;-66
2022/04/10 04:29:52;;;;;;;16.73;15.13;;;2.40;99.90;;;;;;5052020;28;20201;-66
2022/04/10 04:32:17;;;;;;;14.67;13.47;;;2.40;99.90;;;;;;5052428;28;20199;-66
2022/04/10 04:34:43;;;;;;;14.77;13.57;;;2.40;99.90;;;;;;5051738;28;20185;-66
2022/04/10 04:37:09;;;;;;;14.50;12.77;;;2.40;99.90;;;;;;5051107;28;20178;-66
2022/04/10 04:39:35;;;;;;;16.60;12.47;;;2.30;99.90;;;;;;5052144;28;20170;-66
2022/04/10 04:42:01;;;;;;;19.60;12.60;;;2.30;99.90;;;;;;5052153;28;20256;-66
2022/04/10 04:44:26;;;;;;;14.80;12.40;;;2.30;99.90;;;;;;5050803;28;20651;-66
2022/04/10 04:46:54;;;;;;;13.30;11.87;;;2.30;99.90;;;;;;5052105;28;20543;-66
2022/04/10 04:49:20;;;;;;;12.70;11.43;;;2.20;99.90;;;;;;5050673;28;20183;-66
2022/04/10 04:51:45;;;;;;;17.90;12.67;;;2.20;99.90;;;;;;5051895;28;20202;-66
2022/04/10 04:54:11;;;;;;;12.87;11.73;;;2.20;99.90;;;;;;5052073;28;20269;-66
2022/04/10 04:56:37;;;;;;;13.40;11.20;;;2.20;99.90;;;;;;5051578;28;20186;-66
2022/04/10 04:59:02;;;;;;;12.60;11.50;;;2.20;99.90;;;;;;5051988;28;20171;-66
2022/04/10 05:01:28;;;;;;;12.83;11.83;;;2.20;99.90;;;;;;5051667;28;20721;-66
2022/04/10 05:03:53;;;;;;;13.07;11.87;;;2.20;99.90;;;;;;5051836;28;20170;-66
2022/04/10 05:06:19;;;;;;;14.57;13.00;;;2.20;99.90;;;;;;5051585;28;20250;-66
2022/04/10 05:08:48;;;;;;;15.27;12.90;;;2.20;99.90;;;;;;5051861;28;20517;-66
2022/04/10 05:11:14;;;;;;;15.17;12.47;;;2.30;99.90;;;;;;5051014;28;20690;-66
2022/04/10 05:13:41;;;;;;;13.93;12.63;;;2.30;99.90;;;;;;5051625;28;20617;-66
2022/04/10 05:16:07;;;;;;;14.50;13.27;;;2.30;99.90;;;;;;5051551;28;20555;-66
2022/04/10 05:18:33;;;;;;;15.93;14.40;;;2.40;99.90;;;;;;5051687;28;20175;-66
2022/04/10 05:20:59;;;;;;;16.10;14.77;;;2.50;99.90;;;;;;5051911;28;20194;-66
2022/04/10 05:23:25;;;;;;;18.30;16.50;;;2.50;99.90;;;;;;5050458;28;20232;-66
2022/04/10 05:25:50;;;;;;;15.90;14.40;;;2.50;99.90;;;;;;5051226;28;20167;-66
2022/04/10 05:28:16;;;;;;;15.83;14.23;;;2.50;99.90;;;;;;5050349;28;20174;-66
2022/04/10 05:30:43;;;;;;;17.80;16.10;;;2.50;99.90;;;;;;5051767;28;20209;-66
2022/04/10 05:33:09;;;;;;;18.00;15.97;;;2.50;99.90;;;;;;5051907;28;20214;-66
2022/04/10 05:35:35;;;;;;;17.03;15.63;;;2.60;99.90;;;;;;5051324;28;20175;-66
2022/04/10 05:38:01;;;;;;;17.37;16.00;;;2.60;99.90;;;;;;5051356;28;20198;-66
2022/04/10 05:40:27;;;;;;;17.33;15.73;;;2.60;99.90;;;;;;5051952;28;20202;-66
2022/04/10 05:42:53;;;;;;;17.00;15.23;;;2.60;99.90;;;;;;5051839;28;20183;-66
2022/04/10 05:45:18;;;;;;;16.90;15.47;;;2.60;99.90;;;;;;5051427;28;20652;-66
2022/04/10 05:47:44;;;;;;;17.33;15.67;;;2.70;99.90;;;;;;5051484;28;20183;-66
2022/04/10 05:50:11;;;;;;;17.53;15.70;;;2.80;99.90;;;;;;5051710;28;20189;-66
2022/04/10 05:52:40;;;;;;;15.40;14.07;;;2.90;99.90;;;;;;5052465;28;20199;-66
2022/04/10 05:55:07;;;;;;;17.03;14.87;;;3.00;99.90;;;;;;5051147;28;20175;-66
2022/04/10 05:57:33;;;;;;;14.10;12.90;;;3.10;99.90;;;;;;5051160;28;20171;-66
2022/04/10 05:59:59;;;;;;;15.70;14.23;;;3.20;99.90;;;;;;5051349;28;20159;-66
2022/04/10 06:02:25;;;;;;;16.13;13.40;;;3.30;99.90;;;;;;5050116;28;20175;-66
2022/04/10 06:04:50;;;;;;;13.63;12.40;;;3.40;99.90;;;;;;5051169;28;20175;-66
2022/04/10 06:07:16;;;;;;;17.63;13.53;;;3.60;99.90;;;;;;5050957;28;20607;-66
2022/04/10 06:09:41;;;;;;;15.07;12.80;;;3.70;99.90;;;;;;5049345;28;20442;-66
2022/04/10 06:12:08;;;;;;;14.37;12.83;;;3.80;99.90;;;;;;5050710;28;20215;-66
2022/04/10 06:14:33;;;;;;;13.47;12.00;;;4.10;99.90;;;;;;5050681;28;20175;-66
2022/04/10 06:16:59;;;;;;;12.57;11.53;;;4.40;99.90;;;;;;5050604;28;20640;-66
2022/04/10 06:19:24;;;;;;;12.40;11.10;;;5.00;99.90;;;;;;5051143;28;20190;-66
2022/04/10 06:21:50;;;;;;;11.17;10.17;;;5.50;99.90;;;;;;5050577;28;20195;-66
2022/04/10 06:24:15;;;;;;;11.03;10.07;;;6.20;99.90;;;;;;5054858;28;20171;-66
2022/04/10 06:26:44;;;;;;;10.10;9.07;;;6.80;99.90;;;;;;5054401;28;20688;-66
2022/04/10 06:29:09;;;;;;;10.00;9.20;;;7.30;99.90;;;;;;5054716;28;20173;-64
2022/04/10 06:31:35;;;;;;;9.30;8.53;;;7.90;99.90;;;;;;5054455;28;20203;-67
2022/04/10 06:34:01;;;;;;;9.73;8.90;;;8.50;99.90;;;;;;5054543;28;20221;-67
2022/04/10 06:36:27;;;;;;;9.33;8.43;;;9.10;99.90;;;;;;5052888;28;20194;-67
2022/04/10 06:38:52;;;;;;;9.70;8.70;;;9.50;99.90;;;;;;5054588;28;20651;-65
2022/04/10 06:41:18;;;;;;;10.70;9.70;;;9.70;99.90;;;;;;5054459;28;20202;-66
2022/04/10 06:43:44;;;;;;;10.47;8.40;;;9.70;99.90;;;;;;5054221;28;20182;-66
2022/04/10 06:46:10;;;;;;;10.77;9.77;;;9.90;99.90;;;;;;5054409;28;20225;-67
2022/04/10 06:48:36;;;;;;;8.87;8.13;;;10.00;99.90;;;;;;5054196;28;20218;-65
2022/04/10 06:51:03;;;;;;;8.87;7.97;;;10.00;99.90;;;;;;5054523;28;20195;-64
2022/04/10 06:53:29;;;;;;;11.23;10.03;;;9.90;99.90;;;;;;5053389;28;20167;-64
2022/04/10 06:55:54;;;;;;;13.07;10.93;;;9.90;99.90;;;;;;5053710;28;20240;-64
2022/04/10 06:58:22;;;;;;;11.40;8.33;;;9.90;99.90;;;;;;5054325;28;20544;-64
2022/04/10 07:00:52;;;;;;;9.20;8.30;;;10.10;99.90;;;;;;5052614;28;20563;-64
2022/04/10 07:03:17;;;;;;;11.67;9.47;;;10.10;99.90;;;;;;5054481;28;20194;-64
2022/04/10 07:05:44;;;;;;;10.00;9.00;;;10.10;99.90;;;;;;5056521;28;20656;-64
2022/04/10 07:08:09;;;;;;;9.60;8.80;;;10.30;99.90;;;;;;5078713;28;20179;-64
2022/04/10 07:10:38;;;;;;;12.60;8.50;;;10.60;99.90;;;;;;5078624;28;20262;-64
2022/04/10 07:13:04;;;;;;;9.67;8.60;;;10.50;99.90;;;;;;5078732;28;20226;-64
2022/04/10 07:15:30;;;;;;;11.27;9.27;;;10.70;99.90;;;;;;5058213;28;20186;-64
2022/04/10 07:17:57;;;;;;;11.33;9.57;;;10.90;99.90;;;;;;5056171;28;20210;-64
2022/04/10 07:20:26;;;;;;;16.27;14.13;;;10.90;99.90;;;;;;5053705;28;20206;-67
2022/04/10 07:25:36;;;;;;;9.13;8.33;;;10.60;99.90;;;;;;5055379;28;20174;-64
2022/04/10 07:28:02;;;;;;;9.57;8.57;;;10.70;99.90;;;;;;5056568;28;20175;-66
2022/04/10 07:30:29;;;;;;;11.37;8.93;;;11.00;99.90;;;;;;5056099;28;20191;-64
2022/04/10 07:32:56;;;;;;;9.47;8.67;;;11.30;99.90;;;;;;5055942;28;20295;-67
2022/04/10 07:35:22;;;;;;;11.30;8.40;;;11.50;99.90;;;;;;5055397;28;20185;-64
2022/04/10 07:37:48;;;;;;;10.53;8.57;;;11.50;99.90;;;;;;5056158;28;20170;-64
2022/04/10 07:40:14;;;;;;;9.33;8.27;;;11.70;99.90;;;;;;5056112;28;20214;-64
2022/04/10 07:42:43;;;;;;;9.93;8.30;;;11.90;99.90;;;;;;5056426;28;20175;-64
2022/04/10 07:45:10;;;;;;;8.93;8.00;;;12.10;99.90;;;;;;5053141;28;20636;-65
2022/04/10 07:47:36;;;;;;;11.27;8.50;;;12.40;99.90;;;;;;5053189;28;20189;-65
2022/04/10 07:50:02;;;;;;;9.23;8.27;;;12.50;99.90;;;;;;5053117;28;20198;-65
2022/04/10 07:52:28;;;;;;;9.10;8.30;;;12.40;99.90;;;;;;5053261;28;20203;-65
2022/04/10 07:54:54;;;;;;;9.60;8.63;;;12.20;99.90;;;;;;5052614;28;20240;-65
2022/04/10 07:57:20;;;;;;;9.17;8.27;;;12.30;99.90;;;;;;5053048;28;20167;-65
2022/04/10 07:59:46;;;;;;;9.47;8.47;;;12.50;99.90;;;;;;5053131;28;20270;-65
2022/04/10 08:02:12;;;;;;;9.17;8.37;;;12.50;99.90;;;;;;5052954;28;20273;-65
2022/04/10 08:04:38;;;;;;;10.97;8.03;;;12.40;99.90;;;;;;5052643;28;20183;-65
2022/04/10 08:07:04;;;;;;;9.93;8.93;;;12.30;99.90;;;;;;5051593;28;20210;-65
2022/04/10 08:09:30;;;;;;;7.70;7.00;;;12.10;99.90;;;;;;5052676;28;20217;-65
2022/04/10 08:11:55;;;;;;;8.33;6.77;;;12.00;99.90;;;;;;5052459;28;20210;-65
2022/04/10 08:14:21;;;;;;;9.80;7.17;;;11.90;99.90;;;;;;5052506;28;20178;-65
2022/04/10 08:16:47;;;;;;;8.53;7.67;;;11.90;99.90;;;;;;5052462;28;20171;-65
2022/04/10 08:19:13;;;;;;;9.37;7.47;;;12.10;99.90;;;;;;5052616;28;20193;-65
2022/04/10 08:21:38;;;;;;;10.43;7.10;;;12.30;99.90;;;;;;5050965;28;20202;-65
2022/04/10 08:24:04;;;;;;;8.63;7.77;;;12.70;99.90;;;;;;5050861;28;20221;-65
2022/04/10 08:26:32;;;;;;;9.73;8.03;;;13.20;99.90;;;;;;5052412;28;20175;-65
2022/04/10 08:28:57;;;;;;;10.73;7.73;;;13.50;99.90;;;;;;5052805;28;20186;-64
2022/04/10 08:31:24;;;;;;;9.77;7.90;;;14.00;99.90;;;;;;5052653;28;20596;-65
2022/04/10 08:33:51;;;;;;;9.57;7.83;;;13.90;99.90;;;;;;5052531;28;20167;-65
2022/04/10 08:36:17;;;;;;;8.30;7.63;;;13.50;99.90;;;;;;5051423;28;20632;-65
2022/04/10 08:38:42;;;;;;;10.17;8.03;;;13.00;99.90;;;;;;5052423;28;20177;-65
2022/04/10 08:41:09;;;;;;;8.30;6.37;;;12.70;99.90;;;;;;5052298;28;20210;-64
2022/04/10 08:43:35;;;;;;;8.97;6.90;;;12.20;99.90;;;;;;5051211;28;20324;-67
2022/04/10 08:46:02;;;;;;;7.87;6.53;;;11.60;99.90;;;;;;5051067;28;20194;-67
2022/04/10 08:48:29;;;;;;;9.30;6.77;;;11.30;99.90;;;;;;5051053;28;20247;-67
2022/04/10 08:50:58;;;;;;;6.40;5.80;;;11.90;99.90;;;;;;5052244;28;20198;-67
2022/04/10 08:53:25;;;;;;;7.30;6.50;;;12.30;99.90;;;;;;5052373;28;20167;-66
2022/04/10 08:55:51;;;;;;;6.97;6.23;;;12.20;99.90;;;;;;5050494;28;20257;-66
2022/04/10 08:58:19;;;;;;;6.50;5.90;;;12.50;99.90;;;;;;5052156;28;20178;-66
2022/04/10 09:00:44;;;;;;;6.67;6.00;;;12.80;99.90;;;;;;5051906;28;20195;-67
2022/04/10 09:03:10;;;;;;;9.03;6.63;;;13.00;99.90;;;;;;5052046;28;20182;-67
2022/04/10 09:05:37;;;;;;;7.30;6.53;;;13.50;99.90;;;;;;5051561;28;20185;-65
2022/04/10 09:08:11;;;;;;;10.10;8.00;;;13.70;99.90;;;;;;5051746;28;20183;-65
2022/04/10 09:10:52;;;;;;;7.30;6.60;;;13.00;99.90;;;;;;5052283;28;20202;-65
2022/04/10 09:13:41;;;;;;;7.50;6.90;;;12.40;99.90;;;;;;5052058;28;20693;-65
2022/04/10 09:16:07;;;;;;;6.90;6.40;;;11.80;99.90;;;;;;5052275;28;20512;-65
2022/04/10 09:18:51;;;;;;;8.47;7.63;;;11.90;99.90;;;;;;5051841;28;20181;-65
2022/04/10 09:21:28;;;;;;;7.07;6.33;;;11.90;99.90;;;;;;5051787;28;20206;-64
2022/04/10 09:23:56;;;;;;;8.93;7.50;;;11.70;99.90;;;;;;5050484;28;20185;-66
2022/04/10 09:26:21;;;;;;;7.63;6.87;;;11.40;99.90;;;;;;5051435;28;20183;-66
2022/04/10 09:28:49;;;;;;;8.00;6.70;;;11.00;99.90;;;;;;5051747;28;20548;-66
2022/04/10 09:31:34;;;;;;;7.93;7.23;;;10.80;99.90;;;;;;5051774;28;22157;-66
2022/04/10 09:34:11;;;;;;;8.17;6.60;;;10.80;99.90;;;;;;5050461;28;21272;-66
2022/04/10 09:37:00;;;;;;;8.43;6.17;;;11.40;99.90;;;;;;5050589;28;20576;-66
2022/04/10 09:39:33;;;;;;;9.77;6.43;;;12.40;99.90;;;;;;5051577;28;20175;-66
2022/04/10 09:42:04;;;;;;;6.67;6.03;;;13.10;99.90;;;;;;5052165;22;20753;-67
2022/04/10 09:44:33;;;;;;;6.50;5.60;;;13.50;99.90;;;;;;5031487;28;20175;-65
2022/04/10 09:47:09;;;;;;;6.70;5.20;;;13.50;99.90;;;;;;5031794;28;20167;-66
2022/04/10 09:49:39;;;;;;;7.47;5.50;;;13.60;99.90;;;;;;5030417;28;20186;-66
2022/04/10 09:52:11;;;;;;;6.53;5.60;;;13.90;99.90;;;;;;5031580;28;20214;-67
2022/04/10 09:54:48;;;;;;;6.67;5.50;;;14.20;99.90;;;;;;5031542;28;20172;-67
2022/04/10 09:57:15;;;;;;;6.60;5.67;;;14.60;99.90;;;;;;5034004;28;20175;-67
2022/04/10 09:59:46;;;;;;;6.53;5.93;;;14.40;99.90;;;;;;5035636;28;20605;-66
2022/04/10 10:02:14;;;;;;;7.50;6.20;;;13.90;99.90;;;;;;5035709;28;20221;-67
2022/04/10 10:04:41;;;;;;;6.50;5.90;;;13.20;99.90;;;;;;5035446;28;20229;-67
2022/04/10 10:07:15;;;;;;;6.67;6.10;;;12.90;99.90;;;;;;5036602;28;20176;-66
2022/04/10 10:09:42;;;;;;;6.40;5.80;;;12.70;99.90;;;;;;5035793;28;20175;-68
2022/04/10 10:12:08;;;;;;;7.77;6.00;;;12.90;99.90;;;;;;5035315;28;20774;-66
2022/04/10 10:14:37;;;;;;;11.93;6.40;;;13.00;99.90;;;;;;5035633;28;20202;-67
2022/04/10 10:17:04;;;;;;;5.97;5.53;;;12.80;99.90;;;;;;5035727;28;20167;-66
2022/04/10 10:19:34;;;;;;;6.87;6.07;;;12.20;99.90;;;;;;5035562;28;20182;-66
2022/04/10 10:22:00;;;;;;;6.03;5.63;;;11.70;99.90;;;;;;5035301;28;20199;-66
2022/04/10 10:24:30;;;;;;;6.27;5.83;;;11.40;99.90;;;;;;5035061;28;20176;-66
2022/04/10 10:27:11;;;;;;;6.37;5.83;;;11.20;99.90;;;;;;5035139;28;20229;-68
2022/04/10 10:30:02;;;;;;;6.30;5.80;;;11.20;99.90;;;;;;5035380;28;20608;-67
2022/04/10 10:32:48;;;;;;;8.53;6.03;;;11.30;99.90;;;;;;5034795;28;20230;-68
2022/04/10 10:35:29;;;;;;;12.23;10.80;;;11.60;99.90;;;;;;5034809;28;20172;-68
2022/04/10 10:37:55;;;;;;;6.67;6.27;;;12.10;99.90;;;;;;5035405;28;20182;-66
2022/04/10 10:40:21;;;;;;;6.00;5.60;;;13.00;99.90;;;;;;5034937;28;20254;-66
2022/04/10 10:42:51;;;;;;;6.00;5.57;;;13.40;99.50;;;;;;5034863;28;20180;-67
2022/04/10 10:45:33;;;;;;;8.37;5.90;;;13.20;99.30;;;;;;5033391;28;20204;-68
2022/04/10 10:48:26;;;;;;;6.50;5.50;;;13.00;99.90;;;;;;5034480;28;20191;-67
2022/04/10 10:50:53;;;;;;;5.50;5.10;;;13.10;99.20;;;;;;5034584;28;20206;-66
2022/04/10 10:53:45;;;;;;;6.27;5.80;;;13.50;97.60;;;;;;5034558;28;20194;-66
2022/04/10 10:56:16;;;;;;;5.83;5.43;;;13.30;97.00;;;;;;5034541;28;20175;-66
2022/04/10 10:58:42;;;;;;;6.00;5.60;;;13.10;99.40;;;;;;5034945;28;20251;-68
2022/04/10 11:01:09;;;;;;;5.80;5.30;;;13.10;99.30;;;;;;5034636;28;20719;-67
2022/04/10 11:04:03;;;;;;;5.97;5.47;;;13.10;98.60;;;;;;5033213;28;20175;-67
2022/04/10 11:06:30;;;;;;;6.33;5.73;;;12.70;97.60;;;;;;5034037;28;20254;-67
2022/04/10 11:09:16;;;;;;;5.83;5.43;;;12.70;99.20;;;;;;5033317;28;20649;-67
2022/04/10 11:11:41;;;;;;;6.50;5.90;;;12.60;99.70;;;;;;5033926;28;20531;-68
2022/04/10 11:14:34;;;;;;;5.67;5.37;;;12.70;98.80;;;;;;5034044;28;20176;-67
2022/04/10 11:17:20;;;;;;;5.90;5.33;;;12.70;98.10;;;;;;5033988;28;20163;-68
2022/04/10 11:20:07;;;;;;;5.83;5.43;;;12.90;98.70;;;;;;5033961;28;20187;-67
2022/04/10 11:22:35;;;;;;;5.80;5.27;;;13.00;97.80;;;;;;5033926;28;20274;-66
2022/04/10 11:25:08;;;;;;;5.03;4.80;;;12.90;98.00;;;;;;5033926;28;20572;-67
2022/04/10 11:28:07;;;;;;;5.20;4.80;;;12.90;98.50;;;;;;5033917;28;20251;-66
2022/04/10 11:30:38;;;;;;;5.93;5.53;;;13.10;97.90;;;;;;5033952;28;20633;-68
2022/04/10 11:33:06;;;;;;;6.27;5.23;;;13.00;99.70;;;;;;5034067;28;20199;-68
2022/04/10 11:35:34;;;;;;;7.50;5.60;;;13.00;99.60;;;;;;5032823;28;20164;-68
2022/04/10 11:38:01;;;;;;;6.00;5.40;;;13.30;99.90;;;;;;5033923;28;20243;-67
2022/04/10 11:40:30;;;;;;;5.50;5.00;;;13.90;99.90;;;;;;5033544;28;20171;-67
2022/04/10 11:42:58;;;;;;;5.80;4.97;;;14.20;99.90;;;;;;5033729;28;20567;-68
2022/04/10 11:45:26;;;;;;;6.33;5.83;;;14.60;99.50;;;;;;5033558;28;20585;-68
2022/04/10 11:47:52;;;;;;;5.83;5.23;;;14.90;98.60;;;;;;5030947;28;20636;-65
2022/04/10 11:50:22;;;;;;;5.77;5.13;;;15.20;99.90;;;;;;5026952;28;20176;-67
2022/04/10 11:53:14;;;;;;;5.80;5.40;;;15.30;98.30;;;;;;5022715;28;20195;-68
2022/04/10 11:55:45;;;;;;;5.20;4.80;;;15.50;97.00;;;;;;5031000;28;20592;-68
2022/04/10 11:58:19;;;;;;;5.53;5.03;;;15.50;97.90;;;;;;5013343;28;20202;-68
2022/04/10 12:00:55;;;;;;;5.57;5.23;;;15.50;97.50;;;;;;5013524;28;20218;-66
2022/04/10 12:03:24;;;;;;;7.23;6.23;;;15.20;95.30;;;;;;5018893;28;20266;-68
2022/04/10 12:05:51;;;;;;;5.47;5.07;;;15.20;97.70;;;;;;5021013;28;20176;-66
2022/04/10 12:08:17;;;;;;;5.73;5.23;;;15.70;96.70;;;;;;5033035;28;20263;-67
2022/04/10 12:11:12;;;;;;;5.97;5.33;;;15.90;94.90;;;;;;5022387;28;20200;-67
2022/04/10 12:13:37;;;;;;;6.80;5.37;;;15.60;94.60;;;;;;5003800;28;20196;-64
2022/04/10 12:16:13;;;;;;;5.93;5.53;;;15.70;94.80;;;;;;5012291;28;20526;-67
2022/04/10 12:18:54;;;;;;;4.93;4.53;;;15.60;93.90;;;;;;5012792;28;20533;-66
2022/04/10 12:21:22;;;;;;;5.43;4.93;;;15.70;92.80;;;;;;5013111;28;20623;-67
2022/04/10 12:24:04;;;;;;;6.03;5.00;;;15.70;95.50;;;;;;5030420;28;20442;-67
2022/04/10 12:26:32;;;;;;;5.17;4.67;;;15.70;94.10;;;;;;5032449;28;20163;-68
2022/04/10 12:28:59;;;;;;;8.30;5.60;;;15.70;95.40;;;;;;5032409;28;20179;-68
2022/04/10 12:31:25;;;;;;;5.70;5.10;;;16.00;94.90;;;;;;5032462;28;20264;-67
2022/04/10 12:33:51;;;;;;;5.97;4.87;;;16.10;95.20;;;;;;5032415;28;20254;-67
2022/04/10 12:36:21;;;;;;;6.77;5.93;;;16.10;93.80;;;;;;5032843;28;20251;-65
2022/04/10 12:38:54;;;;;;;5.30;4.90;;;16.30;95.00;;;;;;5032593;28;20657;-66
2022/04/10 12:41:31;;;;;;;5.50;5.00;;;16.40;94.60;;;;;;5032312;28;20632;-66
2022/04/10 12:44:00;;;;;;;5.17;4.87;;;16.10;93.50;;;;;;5032252;28;20214;-67
2022/04/10 12:46:39;;;;;;;5.80;5.10;;;16.20;92.40;;;;;;5030295;28;20575;-66
2022/04/10 12:49:12;;;;;;;5.20;4.77;;;16.10;89.80;;;;;;5032271;28;20171;-64
2022/04/10 12:51:59;;;;;;;5.23;4.77;;;16.00;91.20;;;;;;5032275;28;20206;-65